Hlavní strana
METAR-TAF:

METAR-TAF

Letiště :

Marion, Jižní Karolína, Spojené státy americké

zeměpisná šířka: 34-10-52N, zeměpisná délka: 079-20-05W, výška: 28 m

Aktuální stav počasí

Zpráva byla vytvořena před 7 minutami, v 16:55 UTC
Západoseverozápadní vítr 16 kt s nárazy do 23 kt
Teplota 10°C
Vlhkost vzduchu 40%
Tlak 1018 hPa
Viditelnost: 16.1 km
Jasno

METAR: KMAO 271655Z AUTO 29016G23KT 10SM CLR 10/M03 A3005 RMK AO2

Čas: 12:02 (17:02 UTC)


TAF: chybějící

Stav a předpovědi počasí z více než 4 000 letišť (zprávy METAR a TAF).

Červené a žluté tečky na mapě představují dostupné meteorologické stanice.

Když kurzor umístíte na tečku, zobrazí se název stanice.

Pak kliknutím zobrazíte stav a předpověď počasí.

Chcete-li změnit mapu, kliknutím na zelené tlačítko se znaménkem +mapu přiblížíte, kliknutím na zelené tlačítko se znaménkem – mapu oddálíte a kliknutím na zelené šipky přejdete na sousední mapy.


METAR-TAF: